sensor_id;sensor_type;location;lat;lon;timestamp;pressure;altitude;pressure_sealevel;temperature;humidity
61318;BME280;47201;40.428;-8.436;2023-10-09T00:00:48;101166.78;;;20.61;93.84
61318;BME280;47201;40.428;-8.436;2023-10-09T00:02:55;101164.91;;;20.65;92.97
61318;BME280;47201;40.428;-8.436;2023-10-09T00:04:58;101159.66;;;20.64;93.02
61318;BME280;47201;40.428;-8.436;2023-10-09T00:07:03;101151.63;;;20.65;92.83
61318;BME280;47201;40.428;-8.436;2023-10-09T00:09:06;101155.09;;;20.67;92.48
61318;BME280;47201;40.428;-8.436;2023-10-09T00:11:27;101161.41;;;20.63;94.09
61318;BME280;47201;40.428;-8.436;2023-10-09T00:13:30;101149.56;;;20.48;94.15
61318;BME280;47201;40.428;-8.436;2023-10-09T00:15:32;101150.22;;;20.29;94.84
61318;BME280;47201;40.428;-8.436;2023-10-09T00:17:33;101151.84;;;20.08;95.90
61318;BME280;47201;40.428;-8.436;2023-10-09T00:19:34;101149.94;;;19.87;97.28
61318;BME280;47201;40.428;-8.436;2023-10-09T00:21:34;101148.72;;;19.69;100.00
61318;BME280;47201;40.428;-8.436;2023-10-09T00:23:38;101149.31;;;19.50;100.00
61318;BME280;47201;40.428;-8.436;2023-10-09T00:25:48;101145.38;;;19.35;100.00
61318;BME280;47201;40.428;-8.436;2023-10-09T00:27:54;101136.00;;;19.23;100.00
61318;BME280;47201;40.428;-8.436;2023-10-09T00:29:55;101142.41;;;19.16;100.00
61318;BME280;47201;40.428;-8.436;2023-10-09T00:31:59;101139.06;;;19.09;100.00
61318;BME280;47201;40.428;-8.436;2023-10-09T00:34:18;101139.13;;;19.08;100.00
61318;BME280;47201;40.428;-8.436;2023-10-09T00:36:20;101139.13;;;19.08;100.00
61318;BME280;47201;40.428;-8.436;2023-10-09T00:38:28;101141.84;;;19.06;100.00
61318;BME280;47201;40.428;-8.436;2023-10-09T00:40:34;101145.47;;;19.02;100.00
61318;BME280;47201;40.428;-8.436;2023-10-09T00:42:36;101139.41;;;18.98;100.00
61318;BME280;47201;40.428;-8.436;2023-10-09T00:44:38;101136.81;;;18.95;100.00
61318;BME280;47201;40.428;-8.436;2023-10-09T00:46:48;101139.53;;;18.94;100.00
61318;BME280;47201;40.428;-8.436;2023-10-09T00:48:53;101140.47;;;18.91;100.00
61318;BME280;47201;40.428;-8.436;2023-10-09T00:50:54;101144.97;;;18.87;100.00
61318;BME280;47201;40.428;-8.436;2023-10-09T00:52:56;101145.16;;;18.81;100.00
61318;BME280;47201;40.428;-8.436;2023-10-09T00:55:05;101146.06;;;18.80;100.00
61318;BME280;47201;40.428;-8.436;2023-10-09T00:57:42;101142.38;;;18.86;100.00
61318;BME280;47201;40.428;-8.436;2023-10-09T00:59:52;101149.38;;;18.89;100.00
61318;BME280;47201;40.428;-8.436;2023-10-09T01:01:59;101147.56;;;18.89;100.00
61318;BME280;47201;40.428;-8.436;2023-10-09T01:04:05;101142.34;;;18.87;100.00
61318;BME280;47201;40.428;-8.436;2023-10-09T01:06:29;101143.25;;;18.86;100.00
61318;BME280;47201;40.428;-8.436;2023-10-09T01:08:34;101143.16;;;18.90;100.00
61318;BME280;47201;40.428;-8.436;2023-10-09T01:10:46;101142.19;;;18.94;100.00
61318;BME280;47201;40.428;-8.436;2023-10-09T01:12:56;101141.28;;;18.95;100.00
61318;BME280;47201;40.428;-8.436;2023-10-09T01:14:56;101143.34;;;19.43;91.56
61318;BME280;47201;40.428;-8.436;2023-10-09T01:16:59;101143.59;;;19.91;91.10
61318;BME280;47201;40.428;-8.436;2023-10-09T01:19:01;101146.41;;;20.11;90.60
61318;BME280;47201;40.428;-8.436;2023-10-09T01:21:06;101151.78;;;20.10;91.46
61318;BME280;47201;40.428;-8.436;2023-10-09T01:23:10;101137.84;;;20.03;91.85
61318;BME280;47201;40.428;-8.436;2023-10-09T01:25:11;101144.59;;;20.13;89.27
61318;BME280;47201;40.428;-8.436;2023-10-09T01:27:11;101141.50;;;20.51;86.20
61318;BME280;47201;40.428;-8.436;2023-10-09T01:29:19;101140.22;;;20.87;84.22
61318;BME280;47201;40.428;-8.436;2023-10-09T01:31:20;101132.72;;;21.20;84.33
61318;BME280;47201;40.428;-8.436;2023-10-09T01:33:21;101139.81;;;21.44;84.29
61318;BME280;47201;40.428;-8.436;2023-10-09T01:35:26;101138.91;;;21.67;82.18
61318;BME280;47201;40.428;-8.436;2023-10-09T01:37:27;101136.22;;;21.89;82.70
61318;BME280;47201;40.428;-8.436;2023-10-09T01:39:31;101143.59;;;22.03;82.89
61318;BME280;47201;40.428;-8.436;2023-10-09T01:41:34;101137.81;;;22.14;82.57
61318;BME280;47201;40.428;-8.436;2023-10-09T01:43:35;101138.28;;;22.24;82.43
61318;BME280;47201;40.428;-8.436;2023-10-09T01:45:36;101130.63;;;22.37;82.87
61318;BME280;47201;40.428;-8.436;2023-10-09T01:47:45;101131.53;;;22.35;83.83
61318;BME280;47201;40.428;-8.436;2023-10-09T01:49:52;101134.88;;;22.20;82.98
61318;BME280;47201;40.428;-8.436;2023-10-09T01:51:58;101130.16;;;22.27;83.03
61318;BME280;47201;40.428;-8.436;2023-10-09T01:54:04;101128.09;;;22.33;83.39
61318;BME280;47201;40.428;-8.436;2023-10-09T01:56:11;101130.38;;;22.43;82.10
61318;BME280;47201;40.428;-8.436;2023-10-09T01:58:18;101125.81;;;22.65;81.88
61318;BME280;47201;40.428;-8.436;2023-10-09T02:00:21;101129.13;;;22.90;81.99
61318;BME280;47201;40.428;-8.436;2023-10-09T02:02:24;101133.22;;;23.18;81.88
61318;BME280;47201;40.428;-8.436;2023-10-09T02:04:33;101125.53;;;23.29;81.79
61318;BME280;47201;40.428;-8.436;2023-10-09T02:06:35;101130.03;;;23.28;82.49
61318;BME280;47201;40.428;-8.436;2023-10-09T02:08:38;101131.53;;;23.15;83.01
61318;BME280;47201;40.428;-8.436;2023-10-09T02:10:38;101121.50;;;23.01;83.37
61318;BME280;47201;40.428;-8.436;2023-10-09T02:12:48;101121.50;;;22.82;84.08
61318;BME280;47201;40.428;-8.436;2023-10-09T02:14:54;101122.50;;;22.60;84.92
61318;BME280;47201;40.428;-8.436;2023-10-09T02:16:56;101115.06;;;22.48;85.01
61318;BME280;47201;40.428;-8.436;2023-10-09T02:19:03;101105.34;;;22.47;85.27
61318;BME280;47201;40.428;-8.436;2023-10-09T02:21:08;101109.75;;;22.48;85.47
61318;BME280;47201;40.428;-8.436;2023-10-09T02:23:09;101111.31;;;22.52;84.95
61318;BME280;47201;40.428;-8.436;2023-10-09T02:25:13;101109.25;;;22.59;84.89
61318;BME280;47201;40.428;-8.436;2023-10-09T02:27:14;101101.47;;;22.54;85.00
61318;BME280;47201;40.428;-8.436;2023-10-09T02:29:35;101107.72;;;22.53;85.28
61318;BME280;47201;40.428;-8.436;2023-10-09T02:31:38;101108.94;;;22.46;85.35
61318;BME280;47201;40.428;-8.436;2023-10-09T02:33:44;101100.78;;;22.28;88.20
61318;BME280;47201;40.428;-8.436;2023-10-09T02:35:45;101095.69;;;21.82;90.61
61318;BME280;47201;40.428;-8.436;2023-10-09T02:37:46;101108.19;;;21.36;91.52
61318;BME280;47201;40.428;-8.436;2023-10-09T02:39:47;101099.19;;;20.94;91.98
61318;BME280;47201;40.428;-8.436;2023-10-09T02:41:49;101100.56;;;20.57;91.67
61318;BME280;47201;40.428;-8.436;2023-10-09T02:43:50;101105.16;;;20.28;93.11
61318;BME280;47201;40.428;-8.436;2023-10-09T02:45:51;101105.31;;;19.98;93.39
61318;BME280;47201;40.428;-8.436;2023-10-09T02:47:51;101100.00;;;19.71;94.18
61318;BME280;47201;40.428;-8.436;2023-10-09T02:49:55;101095.56;;;19.45;94.66
61318;BME280;47201;40.428;-8.436;2023-10-09T02:52:04;101097.25;;;19.19;95.42
61318;BME280;47201;40.428;-8.436;2023-10-09T02:54:08;101093.53;;;18.96;94.31
61318;BME280;47201;40.428;-8.436;2023-10-09T02:56:38;101092.34;;;19.07;91.63
61318;BME280;47201;40.428;-8.436;2023-10-09T02:58:47;101100.09;;;19.41;89.04
61318;BME280;47201;40.428;-8.436;2023-10-09T03:00:48;101100.78;;;19.75;88.09
61318;BME280;47201;40.428;-8.436;2023-10-09T03:02:49;101101.53;;;20.05;86.97
61318;BME280;47201;40.428;-8.436;2023-10-09T03:04:51;101105.53;;;20.42;86.18
61318;BME280;47201;40.428;-8.436;2023-10-09T03:06:55;101100.22;;;20.66;85.54
61318;BME280;47201;40.428;-8.436;2023-10-09T03:08:57;101093.22;;;20.89;85.28
61318;BME280;47201;40.428;-8.436;2023-10-09T03:10:58;101096.69;;;21.13;84.67
61318;BME280;47201;40.428;-8.436;2023-10-09T03:13:01;101095.25;;;21.27;84.90
61318;BME280;47201;40.428;-8.436;2023-10-09T03:15:03;101093.41;;;21.29;84.99
61318;BME280;47201;40.428;-8.436;2023-10-09T03:17:06;101096.34;;;21.22;84.88
61318;BME280;47201;40.428;-8.436;2023-10-09T03:19:11;101097.44;;;21.17;85.41
61318;BME280;47201;40.428;-8.436;2023-10-09T03:21:13;101098.50;;;21.13;85.43
61318;BME280;47201;40.428;-8.436;2023-10-09T03:23:14;101096.00;;;21.08;85.95
61318;BME280;47201;40.428;-8.436;2023-10-09T03:25:15;101099.66;;;21.05;86.69
61318;BME280;47201;40.428;-8.436;2023-10-09T03:27:17;101097.34;;;20.96;86.97
61318;BME280;47201;40.428;-8.436;2023-10-09T03:29:18;101096.63;;;20.92;87.26
61318;BME280;47201;40.428;-8.436;2023-10-09T03:31:19;101098.75;;;20.83;88.31
61318;BME280;47201;40.428;-8.436;2023-10-09T03:33:21;101106.16;;;20.74;87.51
61318;BME280;47201;40.428;-8.436;2023-10-09T03:35:23;101104.44;;;20.72;88.24
61318;BME280;47201;40.428;-8.436;2023-10-09T03:37:34;101102.78;;;20.69;87.46
61318;BME280;47201;40.428;-8.436;2023-10-09T03:39:35;101099.00;;;20.76;87.41
61318;BME280;47201;40.428;-8.436;2023-10-09T03:41:41;101090.84;;;20.81;86.63
61318;BME280;47201;40.428;-8.436;2023-10-09T03:43:42;101101.41;;;20.83;86.90
61318;BME280;47201;40.428;-8.436;2023-10-09T03:45:42;101100.38;;;20.87;86.78
61318;BME280;47201;40.428;-8.436;2023-10-09T03:47:53;101104.81;;;20.86;87.09
61318;BME280;47201;40.428;-8.436;2023-10-09T03:49:57;101112.88;;;20.85;86.71
61318;BME280;47201;40.428;-8.436;2023-10-09T03:52:05;101115.38;;;20.88;86.23
61318;BME280;47201;40.428;-8.436;2023-10-09T03:54:09;101116.03;;;20.95;85.98
61318;BME280;47201;40.428;-8.436;2023-10-09T03:56:09;101114.72;;;21.05;85.78
61318;BME280;47201;40.428;-8.436;2023-10-09T03:58:13;101110.41;;;21.02;85.90
61318;BME280;47201;40.428;-8.436;2023-10-09T04:00:15;101118.38;;;21.02;85.87
61318;BME280;47201;40.428;-8.436;2023-10-09T04:02:16;101121.22;;;20.98;85.95
61318;BME280;47201;40.428;-8.436;2023-10-09T04:04:17;101122.38;;;20.90;86.08
61318;BME280;47201;40.428;-8.436;2023-10-09T04:06:17;101131.97;;;20.95;85.75
61318;BME280;47201;40.428;-8.436;2023-10-09T04:08:18;101140.72;;;20.97;86.04
61318;BME280;47201;40.428;-8.436;2023-10-09T04:10:21;101137.22;;;20.96;85.61
61318;BME280;47201;40.428;-8.436;2023-10-09T04:12:43;101143.47;;;20.95;85.86
61318;BME280;47201;40.428;-8.436;2023-10-09T04:14:43;101143.53;;;20.94;86.25
61318;BME280;47201;40.428;-8.436;2023-10-09T04:17:04;101145.19;;;20.96;85.92
61318;BME280;47201;40.428;-8.436;2023-10-09T04:19:06;101140.31;;;21.07;85.40
61318;BME280;47201;40.428;-8.436;2023-10-09T04:21:11;101142.50;;;21.20;85.29
61318;BME280;47201;40.428;-8.436;2023-10-09T04:23:41;101147.34;;;21.32;85.06
61318;BME280;47201;40.428;-8.436;2023-10-09T04:26:04;101146.34;;;21.35;84.94
61318;BME280;47201;40.428;-8.436;2023-10-09T04:28:14;101148.91;;;21.38;84.57
61318;BME280;47201;40.428;-8.436;2023-10-09T04:30:14;101147.09;;;21.38;85.07
61318;BME280;47201;40.428;-8.436;2023-10-09T04:32:16;101146.41;;;21.33;84.75
61318;BME280;47201;40.428;-8.436;2023-10-09T04:34:17;101144.06;;;21.26;85.53
61318;BME280;47201;40.428;-8.436;2023-10-09T04:36:24;101150.56;;;21.18;85.83
61318;BME280;47201;40.428;-8.436;2023-10-09T04:38:29;101145.41;;;21.14;85.66
61318;BME280;47201;40.428;-8.436;2023-10-09T04:40:34;101153.59;;;21.07;86.30
61318;BME280;47201;40.428;-8.436;2023-10-09T04:42:46;101151.00;;;21.06;85.81
61318;BME280;47201;40.428;-8.436;2023-10-09T04:44:58;101155.31;;;21.10;85.99
61318;BME280;47201;40.428;-8.436;2023-10-09T04:47:19;101151.91;;;21.06;86.15
61318;BME280;47201;40.428;-8.436;2023-10-09T04:49:19;101153.81;;;21.03;86.25
61318;BME280;47201;40.428;-8.436;2023-10-09T04:51:29;101150.50;;;20.96;86.79
61318;BME280;47201;40.428;-8.436;2023-10-09T04:53:36;101149.00;;;20.89;87.11
61318;BME280;47201;40.428;-8.436;2023-10-09T04:55:44;101151.19;;;20.77;87.62
61318;BME280;47201;40.428;-8.436;2023-10-09T04:57:54;101146.47;;;20.60;88.40
61318;BME280;47201;40.428;-8.436;2023-10-09T05:00:01;101152.50;;;20.40;89.02
61318;BME280;47201;40.428;-8.436;2023-10-09T05:02:04;101154.91;;;20.23;89.64
61318;BME280;47201;40.428;-8.436;2023-10-09T05:04:06;101150.13;;;20.07;89.61
61318;BME280;47201;40.428;-8.436;2023-10-09T05:06:26;101150.41;;;19.98;90.03
61318;BME280;47201;40.428;-8.436;2023-10-09T05:08:45;101149.56;;;19.97;89.52
61318;BME280;47201;40.428;-8.436;2023-10-09T05:10:50;101144.03;;;20.04;88.97
61318;BME280;47201;40.428;-8.436;2023-10-09T05:13:05;101150.78;;;20.14;88.70
61318;BME280;47201;40.428;-8.436;2023-10-09T05:15:08;101153.22;;;20.20;88.51
61318;BME280;47201;40.428;-8.436;2023-10-09T05:17:09;101148.75;;;20.21;88.45
61318;BME280;47201;40.428;-8.436;2023-10-09T05:19:15;101150.50;;;20.22;88.64
61318;BME280;47201;40.428;-8.436;2023-10-09T05:23:44;101155.13;;;20.42;87.34
61318;BME280;47201;40.428;-8.436;2023-10-09T05:25:49;101154.59;;;20.56;86.67
61318;BME280;47201;40.428;-8.436;2023-10-09T05:28:18;101148.13;;;20.63;86.40
61318;BME280;47201;40.428;-8.436;2023-10-09T05:30:37;101147.84;;;20.72;85.96
61318;BME280;47201;40.428;-8.436;2023-10-09T05:32:42;101142.44;;;20.75;86.37
61318;BME280;47201;40.428;-8.436;2023-10-09T05:34:48;101139.78;;;20.75;86.16
61318;BME280;47201;40.428;-8.436;2023-10-09T05:37:04;101142.25;;;20.80;85.95
61318;BME280;47201;40.428;-8.436;2023-10-09T05:39:22;101144.75;;;20.85;85.92
61318;BME280;47201;40.428;-8.436;2023-10-09T05:41:46;101145.88;;;20.77;86.59
61318;BME280;47201;40.428;-8.436;2023-10-09T05:43:59;101147.53;;;20.56;87.14
61318;BME280;47201;40.428;-8.436;2023-10-09T05:46:29;101155.38;;;20.34;88.13
61318;BME280;47201;40.428;-8.436;2023-10-09T05:48:36;101155.00;;;20.20;88.30
61318;BME280;47201;40.428;-8.436;2023-10-09T05:50:39;101147.38;;;20.36;87.23
61318;BME280;47201;40.428;-8.436;2023-10-09T05:52:55;101140.94;;;20.43;87.28
61318;BME280;47201;40.428;-8.436;2023-10-09T05:54:57;101147.41;;;20.34;87.90
61318;BME280;47201;40.428;-8.436;2023-10-09T05:57:16;101145.63;;;20.09;89.51
61318;BME280;47201;40.428;-8.436;2023-10-09T05:59:34;101145.34;;;19.92;89.62
61318;BME280;47201;40.428;-8.436;2023-10-09T06:01:54;101151.16;;;19.75;90.14
61318;BME280;47201;40.428;-8.436;2023-10-09T06:04:03;101146.59;;;19.52;91.17
61318;BME280;47201;40.428;-8.436;2023-10-09T06:06:16;101146.47;;;19.28;91.93
61318;BME280;47201;40.428;-8.436;2023-10-09T06:08:43;101151.81;;;18.96;93.43
61318;BME280;47201;40.428;-8.436;2023-10-09T06:10:43;101152.53;;;18.70;94.00
61318;BME280;47201;40.428;-8.436;2023-10-09T06:12:43;101152.41;;;18.43;94.73
61318;BME280;47201;40.428;-8.436;2023-10-09T06:14:44;101150.41;;;18.18;93.86
61318;BME280;47201;40.428;-8.436;2023-10-09T06:16:58;101150.09;;;17.95;94.40
61318;BME280;47201;40.428;-8.436;2023-10-09T06:19:04;101146.19;;;17.75;94.76
61318;BME280;47201;40.428;-8.436;2023-10-09T06:21:36;101153.56;;;17.60;95.41
61318;BME280;47201;40.428;-8.436;2023-10-09T06:23:42;101147.69;;;17.48;96.54
61318;BME280;47201;40.428;-8.436;2023-10-09T06:26:01;101151.56;;;17.33;96.60
61318;BME280;47201;40.428;-8.436;2023-10-09T06:28:22;101150.03;;;17.22;96.82
61318;BME280;47201;40.428;-8.436;2023-10-09T06:30:34;101137.91;;;17.13;97.94
61318;BME280;47201;40.428;-8.436;2023-10-09T06:32:35;101155.66;;;17.07;97.93
61318;BME280;47201;40.428;-8.436;2023-10-09T06:34:37;101140.66;;;17.09;95.22
61318;BME280;47201;40.428;-8.436;2023-10-09T06:36:44;101148.38;;;17.17;98.43
61318;BME280;47201;40.428;-8.436;2023-10-09T06:38:53;101141.50;;;17.11;99.25
61318;BME280;47201;40.428;-8.436;2023-10-09T06:41:13;101146.97;;;17.02;96.55
61318;BME280;47201;40.428;-8.436;2023-10-09T06:43:35;101141.06;;;17.31;96.61
61318;BME280;47201;40.428;-8.436;2023-10-09T06:45:43;101145.41;;;17.32;96.53
61318;BME280;47201;40.428;-8.436;2023-10-09T06:47:49;101147.38;;;17.22;98.22
61318;BME280;47201;40.428;-8.436;2023-10-09T06:50:27;101147.50;;;17.18;96.54
61318;BME280;47201;40.428;-8.436;2023-10-09T06:52:48;101142.59;;;17.40;93.22
61318;BME280;47201;40.428;-8.436;2023-10-09T06:54:58;101149.66;;;17.77;92.32
61318;BME280;47201;40.428;-8.436;2023-10-09T06:57:18;101150.22;;;18.26;89.47
61318;BME280;47201;40.428;-8.436;2023-10-09T06:59:39;101151.63;;;18.71;88.25
61318;BME280;47201;40.428;-8.436;2023-10-09T07:02:02;101147.91;;;19.10;87.99
61318;BME280;47201;40.428;-8.436;2023-10-09T07:04:08;101148.66;;;19.43;86.00
61318;BME280;47201;40.428;-8.436;2023-10-09T07:06:19;101154.41;;;19.85;84.91
61318;BME280;47201;40.428;-8.436;2023-10-09T07:08:45;101155.00;;;20.20;84.64
61318;BME280;47201;40.428;-8.436;2023-10-09T07:11:07;101165.66;;;20.43;83.71
61318;BME280;47201;40.428;-8.436;2023-10-09T07:13:42;101164.97;;;20.64;83.80
61318;BME280;47201;40.428;-8.436;2023-10-09T07:15:53;101161.72;;;20.81;83.57
61318;BME280;47201;40.428;-8.436;2023-10-09T07:18:14;101164.72;;;20.95;83.58
61318;BME280;47201;40.428;-8.436;2023-10-09T07:20:23;101163.50;;;21.04;83.44
61318;BME280;47201;40.428;-8.436;2023-10-09T07:22:39;101163.44;;;21.05;83.76
61318;BME280;47201;40.428;-8.436;2023-10-09T07:24:53;101161.94;;;21.22;83.46
61318;BME280;47201;40.428;-8.436;2023-10-09T07:26:56;101165.78;;;22.03;81.55
61318;BME280;47201;40.428;-8.436;2023-10-09T07:28:56;101165.94;;;23.21;79.27
61318;BME280;47201;40.428;-8.436;2023-10-09T07:31:23;101172.91;;;24.67;79.36
61318;BME280;47201;40.428;-8.436;2023-10-09T07:33:39;101181.94;;;25.78;78.84
61318;BME280;47201;40.428;-8.436;2023-10-09T07:36:00;101184.88;;;26.65;78.41
61318;BME280;47201;40.428;-8.436;2023-10-09T07:38:06;101183.13;;;27.22;78.28
61318;BME280;47201;40.428;-8.436;2023-10-09T07:40:09;101185.94;;;27.48;78.16
61318;BME280;47201;40.428;-8.436;2023-10-09T07:42:15;101192.81;;;27.66;78.71
61318;BME280;47201;40.428;-8.436;2023-10-09T07:44:19;101195.53;;;28.07;77.99
61318;BME280;47201;40.428;-8.436;2023-10-09T07:46:20;101197.81;;;28.39;77.58
61318;BME280;47201;40.428;-8.436;2023-10-09T07:48:33;101196.41;;;28.97;77.00
61318;BME280;47201;40.428;-8.436;2023-10-09T07:50:48;101205.41;;;29.22;76.81
61318;BME280;47201;40.428;-8.436;2023-10-09T07:52:49;101205.63;;;29.32;76.98
61318;BME280;47201;40.428;-8.436;2023-10-09T07:54:50;101208.41;;;29.43;76.64
61318;BME280;47201;40.428;-8.436;2023-10-09T07:56:53;101202.06;;;29.69;76.37
61318;BME280;47201;40.428;-8.436;2023-10-09T07:58:53;101210.63;;;30.22;76.20
61318;BME280;47201;40.428;-8.436;2023-10-09T08:01:00;101217.81;;;30.69;75.86
61318;BME280;47201;40.428;-8.436;2023-10-09T08:03:06;101210.84;;;30.89;75.27
61318;BME280;47201;40.428;-8.436;2023-10-09T08:05:24;101212.22;;;31.17;74.98
61318;BME280;47201;40.428;-8.436;2023-10-09T08:07:33;101219.34;;;31.19;74.99
61318;BME280;47201;40.428;-8.436;2023-10-09T08:09:37;101216.84;;;30.59;75.43
61318;BME280;47201;40.428;-8.436;2023-10-09T08:11:47;101224.34;;;30.89;75.60
61318;BME280;47201;40.428;-8.436;2023-10-09T08:14:14;101226.81;;;31.15;75.62
61318;BME280;47201;40.428;-8.436;2023-10-09T08:16:38;101226.66;;;31.39;74.90
61318;BME280;47201;40.428;-8.436;2023-10-09T08:18:41;101230.66;;;32.00;74.40
61318;BME280;47201;40.428;-8.436;2023-10-09T08:20:45;101234.78;;;32.58;73.72
61318;BME280;47201;40.428;-8.436;2023-10-09T08:22:58;101236.25;;;32.93;73.57
61318;BME280;47201;40.428;-8.436;2023-10-09T08:24:58;101245.75;;;33.59;72.78
61318;BME280;47201;40.428;-8.436;2023-10-09T08:26:59;101241.22;;;34.28;72.12
61318;BME280;47201;40.428;-8.436;2023-10-09T08:29:19;101242.94;;;34.87;71.50
61318;BME280;47201;40.428;-8.436;2023-10-09T08:31:20;101247.38;;;35.25;71.46
61318;BME280;47201;40.428;-8.436;2023-10-09T08:33:45;101246.88;;;35.40;70.84
61318;BME280;47201;40.428;-8.436;2023-10-09T08:36:06;101240.84;;;35.36;70.53
61318;BME280;47201;40.428;-8.436;2023-10-09T08:38:08;101240.53;;;35.21;70.79
61318;BME280;47201;40.428;-8.436;2023-10-09T08:40:10;101239.81;;;35.47;70.48
61318;BME280;47201;40.428;-8.436;2023-10-09T08:42:18;101243.53;;;35.46;70.65
61318;BME280;47201;40.428;-8.436;2023-10-09T08:44:20;101250.88;;;35.36;70.35
61318;BME280;47201;40.428;-8.436;2023-10-09T08:46:27;101248.13;;;35.18;70.65
61318;BME280;47201;40.428;-8.436;2023-10-09T08:48:27;101249.31;;;35.43;70.26
61318;BME280;47201;40.428;-8.436;2023-10-09T08:50:29;101235.72;;;35.43;70.68
61318;BME280;47201;40.428;-8.436;2023-10-09T08:52:30;101246.16;;;35.66;70.48
61318;BME280;47201;40.428;-8.436;2023-10-09T08:54:32;101253.25;;;35.95;70.29
61318;BME280;47201;40.428;-8.436;2023-10-09T08:56:33;101246.31;;;36.18;69.92
61318;BME280;47201;40.428;-8.436;2023-10-09T08:58:34;101253.03;;;37.11;69.10
61318;BME280;47201;40.428;-8.436;2023-10-09T09:00:38;101259.69;;;37.76;68.51
61318;BME280;47201;40.428;-8.436;2023-10-09T09:02:47;101257.69;;;38.03;68.10
61318;BME280;47201;40.428;-8.436;2023-10-09T09:04:55;101254.91;;;37.78;68.89
61318;BME280;47201;40.428;-8.436;2023-10-09T09:06:56;101261.25;;;37.87;68.50
61318;BME280;47201;40.428;-8.436;2023-10-09T09:08:57;101254.38;;;37.67;68.93
61318;BME280;47201;40.428;-8.436;2023-10-09T09:11:15;101262.22;;;37.61;69.08
61318;BME280;47201;40.428;-8.436;2023-10-09T09:13:18;101259.34;;;37.71;69.00
61318;BME280;47201;40.428;-8.436;2023-10-09T09:15:19;101261.78;;;37.99;69.05
61318;BME280;47201;40.428;-8.436;2023-10-09T09:17:23;101262.47;;;38.26;67.81
61318;BME280;47201;40.428;-8.436;2023-10-09T09:19:31;101255.63;;;38.05;68.53
61318;BME280;47201;40.428;-8.436;2023-10-09T09:21:33;101252.22;;;38.45;69.07
61318;BME280;47201;40.428;-8.436;2023-10-09T09:23:52;101258.97;;;39.30;68.25
61318;BME280;47201;40.428;-8.436;2023-10-09T09:25:54;101256.81;;;39.80;66.71
61318;BME280;47201;40.428;-8.436;2023-10-09T09:28:03;101258.59;;;40.34;66.27
61318;BME280;47201;40.428;-8.436;2023-10-09T09:30:21;101261.84;;;40.68;66.28
61318;BME280;47201;40.428;-8.436;2023-10-09T09:32:34;101262.44;;;41.08;66.87
61318;BME280;47201;40.428;-8.436;2023-10-09T09:34:44;101268.63;;;42.12;65.36
61318;BME280;47201;40.428;-8.436;2023-10-09T09:36:50;101270.59;;;42.18;65.34
61318;BME280;47201;40.428;-8.436;2023-10-09T09:38:54;101266.66;;;42.06;64.45
61318;BME280;47201;40.428;-8.436;2023-10-09T09:41:01;101265.63;;;41.63;65.07
61318;BME280;47201;40.428;-8.436;2023-10-09T09:43:07;101266.66;;;41.26;65.80
61318;BME280;47201;40.428;-8.436;2023-10-09T09:45:21;101268.84;;;40.85;65.78
61318;BME280;47201;40.428;-8.436;2023-10-09T09:47:23;101264.63;;;40.06;66.47
61318;BME280;47201;40.428;-8.436;2023-10-09T09:49:27;101263.47;;;39.54;66.87
61318;BME280;47201;40.428;-8.436;2023-10-09T09:51:32;101265.56;;;39.75;67.52
61318;BME280;47201;40.428;-8.436;2023-10-09T09:53:32;101254.06;;;39.80;65.88
61318;BME280;47201;40.428;-8.436;2023-10-09T09:55:35;101263.03;;;39.65;66.61
61318;BME280;47201;40.428;-8.436;2023-10-09T09:57:43;101257.28;;;39.60;67.13
61318;BME280;47201;40.428;-8.436;2023-10-09T09:59:45;101255.47;;;39.44;66.64
61318;BME280;47201;40.428;-8.436;2023-10-09T10:02:12;101262.72;;;39.29;67.02
61318;BME280;47201;40.428;-8.436;2023-10-09T10:04:20;101266.13;;;38.91;67.31
61318;BME280;47201;40.428;-8.436;2023-10-09T10:06:22;101269.38;;;38.95;67.84
61318;BME280;47201;40.428;-8.436;2023-10-09T10:08:26;101266.03;;;38.68;68.15
61318;BME280;47201;40.428;-8.436;2023-10-09T10:10:37;101259.53;;;38.61;67.64
61318;BME280;47201;40.428;-8.436;2023-10-09T10:15:03;101265.66;;;38.63;67.36
61318;BME280;47201;40.428;-8.436;2023-10-09T10:17:14;101269.19;;;38.96;67.51
61318;BME280;47201;40.428;-8.436;2023-10-09T10:19:18;101265.00;;;39.57;66.87
61318;BME280;47201;40.428;-8.436;2023-10-09T10:21:30;101266.69;;;40.04;66.18
61318;BME280;47201;40.428;-8.436;2023-10-09T10:24:01;101266.00;;;39.87;66.36
61318;BME280;47201;40.428;-8.436;2023-10-09T10:26:20;101266.09;;;40.17;66.24
61318;BME280;47201;40.428;-8.436;2023-10-09T10:28:30;101265.34;;;40.62;66.63
61318;BME280;47201;40.428;-8.436;2023-10-09T10:30:47;101276.22;;;40.70;66.51
61318;BME280;47201;40.428;-8.436;2023-10-09T10:34:53;101261.84;;;40.68;66.28
61318;BME280;47201;40.428;-8.436;2023-10-09T10:36:56;101265.44;;;40.83;66.58
61318;BME280;47201;40.428;-8.436;2023-10-09T10:39:00;101262.59;;;40.91;65.82
61318;BME280;47201;40.428;-8.436;2023-10-09T10:41:24;101264.03;;;40.72;66.18
61318;BME280;47201;40.428;-8.436;2023-10-09T10:43:24;101261.16;;;40.36;66.67
61318;BME280;47201;40.428;-8.436;2023-10-09T10:45:32;101259.44;;;40.35;66.73
61318;BME280;47201;40.428;-8.436;2023-10-09T10:47:35;101253.59;;;40.38;66.79
61318;BME280;47201;40.428;-8.436;2023-10-09T10:49:35;101257.38;;;39.98;66.82
61318;BME280;47201;40.428;-8.436;2023-10-09T10:51:41;101261.72;;;40.31;66.93
61318;BME280;47201;40.428;-8.436;2023-10-09T10:53:51;101261.72;;;40.31;66.36
61318;BME280;47201;40.428;-8.436;2023-10-09T10:56:00;101250.69;;;40.54;66.75
61318;BME280;47201;40.428;-8.436;2023-10-09T10:58:16;101252.63;;;40.84;66.46
61318;BME280;47201;40.428;-8.436;2023-10-09T11:00:23;101253.34;;;40.92;66.73
61318;BME280;47201;40.428;-8.436;2023-10-09T11:02:45;101250.41;;;40.64;66.59
61318;BME280;47201;40.428;-8.436;2023-10-09T11:04:48;101245.06;;;40.71;66.70